createdAt,value
2019-03-17T00:00:24.255Z,96581.76
2019-03-17T00:02:53.705Z,96579.71
2019-03-17T00:05:23.225Z,96578.31
2019-03-17T00:07:52.693Z,96576.72
2019-03-17T00:10:22.145Z,96569.16
2019-03-17T00:12:51.614Z,96563.61
2019-03-17T00:15:21.072Z,96571.55
2019-03-17T00:17:50.520Z,96559.25
2019-03-17T00:20:19.999Z,96558.39
2019-03-17T00:22:49.467Z,96551.50
2019-03-17T00:25:19.007Z,96543.75
2019-03-17T00:27:48.457Z,96539.90
2019-03-17T00:30:17.980Z,96542.28
2019-03-17T00:32:47.454Z,96535.31
2019-03-17T00:35:16.911Z,96529.91
2019-03-17T00:37:46.389Z,96526.36
2019-03-17T00:40:15.874Z,96519.89
2019-03-17T00:42:45.372Z,96519.78
2019-03-17T00:45:14.923Z,96513.69
2019-03-17T00:47:44.371Z,96509.47
2019-03-17T00:50:13.904Z,96499.43
2019-03-17T00:52:43.368Z,96498.07
2019-03-17T00:55:12.891Z,96492.69
2019-03-17T00:57:43.213Z,96486.45
2019-03-17T01:00:16.691Z,96483.13
2019-03-17T01:02:46.139Z,96480.17
2019-03-17T01:05:15.590Z,96477.06
2019-03-17T01:07:45.053Z,96460.57
2019-03-17T01:10:14.644Z,96461.22
2019-03-17T01:12:45.079Z,96454.36
2019-03-17T01:15:14.623Z,96448.83
2019-03-17T01:17:44.077Z,96449.28
2019-03-17T01:20:13.716Z,96446.41
2019-03-17T01:22:43.237Z,96447.74
2019-03-17T01:25:12.689Z,96435.46
2019-03-17T01:27:42.159Z,96437.05
2019-03-17T01:30:14.498Z,96428.78
2019-03-17T01:32:43.953Z,96424.38
2019-03-17T01:35:13.488Z,96421.14
2019-03-17T01:37:42.937Z,96420.61
2019-03-17T01:40:12.875Z,96413.68
2019-03-17T01:42:42.343Z,96408.86
2019-03-17T01:45:11.869Z,96407.25
2019-03-17T01:47:41.342Z,96405.91
2019-03-17T01:50:11.130Z,96399.48
2019-03-17T01:52:40.580Z,96395.42
2019-03-17T01:55:10.188Z,96395.80
2019-03-17T01:57:39.640Z,96387.58
2019-03-17T02:00:13.556Z,96376.63
2019-03-17T02:02:43.009Z,96375.92
2019-03-17T02:05:21.383Z,96368.62
2019-03-17T02:07:43.724Z,96366.97
2019-03-17T02:10:13.514Z,96362.11
2019-03-17T02:12:43.103Z,96357.27
2019-03-17T02:15:12.713Z,96353.38
2019-03-17T02:17:42.176Z,96346.95
2019-03-17T02:20:12.285Z,96351.16
2019-03-17T02:22:41.743Z,96351.75
2019-03-17T02:25:11.215Z,96348.67
2019-03-17T02:27:40.661Z,96341.92
2019-03-17T02:30:13.897Z,96333.69
2019-03-17T02:32:43.351Z,96328.08
2019-03-17T02:35:12.863Z,96319.78
2019-03-17T02:37:42.311Z,96316.83
2019-03-17T02:40:11.778Z,96319.80
2019-03-17T02:42:41.227Z,96317.73
2019-03-17T02:45:11.642Z,96320.02
2019-03-17T02:47:41.340Z,96314.45
2019-03-17T02:50:10.966Z,96322.04
2019-03-17T02:52:40.441Z,96314.38
2019-03-17T02:55:10.730Z,96310.89
2019-03-17T02:57:40.172Z,96304.19
2019-03-17T03:00:11.623Z,96302.80
2019-03-17T03:02:41.078Z,96298.31
2019-03-17T03:05:11.236Z,96301.83
2019-03-17T03:07:40.778Z,96288.03
2019-03-17T03:10:10.419Z,96296.08
2019-03-17T03:12:39.841Z,96292.50
2019-03-17T03:15:09.945Z,96290.02
2019-03-17T03:17:39.571Z,96293.95
2019-03-17T03:20:12.102Z,96288.43
2019-03-17T03:22:41.570Z,96292.34
2019-03-17T03:25:11.031Z,96294.24
2019-03-17T03:27:40.498Z,96288.27
2019-03-17T03:30:13.311Z,96283.69
2019-03-17T03:32:42.850Z,96284.37
2019-03-17T03:35:12.406Z,96279.61
2019-03-17T03:37:41.879Z,96284.78
2019-03-17T03:40:13.354Z,96278.20
2019-03-17T03:42:42.797Z,96282.10
2019-03-17T03:45:13.501Z,96275.73
2019-03-17T03:47:42.963Z,96277.25
2019-03-17T03:50:13.259Z,96263.22
2019-03-17T03:52:42.770Z,96268.78
2019-03-17T03:55:12.327Z,96255.47
2019-03-17T03:57:41.801Z,96248.80
2019-03-17T04:00:16.168Z,96247.26
2019-03-17T04:02:45.790Z,96257.06
2019-03-17T04:05:15.247Z,96251.91
2019-03-17T04:07:44.884Z,96270.52
2019-03-17T04:10:14.438Z,96258.75
2019-03-17T04:12:43.876Z,96258.44
2019-03-17T04:15:13.491Z,96259.58
2019-03-17T04:17:42.960Z,96263.10
2019-03-17T04:20:13.147Z,96253.74
2019-03-17T04:22:42.583Z,96246.65
2019-03-17T04:25:13.868Z,96242.56
2019-03-17T04:27:43.321Z,96248.55
2019-03-17T04:30:12.854Z,96250.02
2019-03-17T04:32:42.321Z,96244.16
2019-03-17T04:35:12.010Z,96252.57
2019-03-17T04:37:41.709Z,96251.28
2019-03-17T04:40:11.443Z,96254.88
2019-03-17T04:42:40.956Z,96245.44
2019-03-17T04:45:10.843Z,96244.92
2019-03-17T04:47:40.314Z,96249.22
2019-03-17T04:50:10.616Z,96245.20
2019-03-17T04:52:40.090Z,96238.58
2019-03-17T04:55:09.617Z,96231.11
2019-03-17T04:57:39.087Z,96238.31
2019-03-17T05:00:13.349Z,96231.77
2019-03-17T05:02:42.785Z,96225.23
2019-03-17T05:05:12.395Z,96220.33
2019-03-17T05:07:41.866Z,96205.45
2019-03-17T05:10:11.695Z,96191.33
2019-03-17T05:12:41.141Z,96191.74
2019-03-17T05:15:11.750Z,96190.61
2019-03-17T05:17:41.214Z,96196.46
2019-03-17T05:20:11.527Z,96190.89
2019-03-17T05:22:41.057Z,96194.88
2019-03-17T05:25:10.665Z,96206.45
2019-03-17T05:27:40.356Z,96203.48
2019-03-17T05:30:12.140Z,96208.14
2019-03-17T05:32:41.608Z,96205.59
2019-03-17T05:35:11.382Z,96203.86
2019-03-17T05:37:40.855Z,96199.30
2019-03-17T05:40:10.942Z,96200.51
2019-03-17T05:42:41.140Z,96184.72
2019-03-17T05:45:10.996Z,96194.32
2019-03-17T05:47:40.591Z,96203.91
2019-03-17T05:50:11.049Z,96199.17
2019-03-17T05:52:40.556Z,96192.28
2019-03-17T05:55:10.741Z,96185.63
2019-03-17T05:57:40.212Z,96185.22
2019-03-17T06:00:15.914Z,96184.17
2019-03-17T06:02:45.437Z,96177.97
2019-03-17T06:05:14.908Z,96181.13
2019-03-17T06:07:44.376Z,96181.13
2019-03-17T06:10:13.834Z,96191.96
2019-03-17T06:12:43.285Z,96191.11
2019-03-17T06:15:13.198Z,96198.03
2019-03-17T06:17:42.759Z,96205.81
2019-03-17T06:20:13.184Z,96217.61
2019-03-17T06:22:42.694Z,96215.67
2019-03-17T06:25:12.221Z,96207.48
2019-03-17T06:27:41.693Z,96208.52
2019-03-17T06:30:14.500Z,96208.03
2019-03-17T06:32:43.952Z,96219.01
2019-03-17T06:35:13.432Z,96214.25
2019-03-17T06:37:42.883Z,96218.50
2019-03-17T06:40:13.671Z,96216.02
2019-03-17T06:42:43.127Z,96216.02
2019-03-17T06:45:12.576Z,96217.98
2019-03-17T06:47:42.049Z,96220.41
2019-03-17T06:50:17.524Z,96218.78
2019-03-17T06:52:46.975Z,96225.21
2019-03-17T06:55:19.386Z,96228.13
2019-03-17T06:57:48.837Z,96222.92
2019-03-17T07:00:18.431Z,96230.89
2019-03-17T07:02:47.909Z,96230.22
2019-03-17T07:05:17.380Z,96234.97
2019-03-17T07:07:46.854Z,96235.28
2019-03-17T07:10:16.300Z,96227.81
2019-03-17T07:12:45.753Z,96237.44
2019-03-17T07:15:15.208Z,96240.72
2019-03-17T07:17:44.686Z,96252.63
2019-03-17T07:20:15.106Z,96249.78
2019-03-17T07:22:44.554Z,96251.68
2019-03-17T07:25:14.078Z,96250.13
2019-03-17T07:27:43.548Z,96250.01
2019-03-17T07:30:18.657Z,96252.67
2019-03-17T07:32:48.127Z,96231.70
2019-03-17T07:35:17.578Z,96250.80
2019-03-17T07:37:56.095Z,96241.80
2019-03-17T07:40:18.224Z,96246.17
2019-03-17T07:42:47.695Z,96238.34
2019-03-17T07:45:17.161Z,96243.84
2019-03-17T07:47:46.639Z,96247.52
2019-03-17T07:50:16.088Z,96231.70
2019-03-17T07:52:45.538Z,96210.45
2019-03-17T07:55:15.013Z,96235.84
2019-03-17T07:57:44.487Z,96244.84
2019-03-17T08:00:14.909Z,96237.58
2019-03-17T08:02:44.361Z,96234.30
2019-03-17T08:05:13.831Z,96242.58
2019-03-17T08:07:43.281Z,96237.63
2019-03-17T08:10:15.241Z,96251.80
2019-03-17T08:12:44.762Z,96243.84
2019-03-17T08:15:15.069Z,96247.02
2019-03-17T08:17:44.556Z,96240.38
2019-03-17T08:20:14.649Z,96234.00
2019-03-17T08:22:44.176Z,96254.52
2019-03-17T08:25:13.693Z,96262.59
2019-03-17T08:27:43.195Z,96258.23
2019-03-17T08:30:17.835Z,96252.91
2019-03-17T08:32:47.426Z,96263.47
2019-03-17T08:35:17.129Z,96280.53
2019-03-17T08:37:46.577Z,96275.44
2019-03-17T08:40:18.527Z,96280.63
2019-03-17T08:42:48.071Z,96297.14
2019-03-17T08:45:17.529Z,96296.20
2019-03-17T08:47:57.355Z,96301.92
2019-03-17T08:50:18.182Z,96301.59
2019-03-17T08:52:47.629Z,96226.06
2019-03-17T08:55:17.115Z,96311.05
2019-03-17T08:57:46.566Z,96309.11
2019-03-17T09:00:21.582Z,96310.97
2019-03-17T09:02:51.058Z,96315.62
2019-03-17T09:05:20.528Z,96307.59
2019-03-17T09:07:50.237Z,96322.87
2019-03-17T09:10:19.702Z,96313.06
2019-03-17T09:12:49.161Z,96309.18
2019-03-17T09:15:18.610Z,96320.46
2019-03-17T09:17:48.089Z,96320.45
2019-03-17T09:20:17.547Z,96337.01
2019-03-17T09:22:46.994Z,96339.38
2019-03-17T09:25:16.464Z,96345.83
2019-03-17T09:27:46.175Z,96347.12
2019-03-17T09:30:17.342Z,96358.94
2019-03-17T09:32:46.813Z,96341.75
2019-03-17T09:35:16.366Z,96359.72
2019-03-17T09:37:45.862Z,96356.91
2019-03-17T09:40:16.854Z,96348.42
2019-03-17T09:42:46.364Z,96348.66
2019-03-17T09:45:16.668Z,96350.17
2019-03-17T09:47:46.128Z,96350.27
2019-03-17T09:50:20.412Z,96356.44
2019-03-17T09:52:49.872Z,96349.43
2019-03-17T09:55:19.325Z,96356.54
2019-03-17T09:57:48.777Z,96368.03
2019-03-17T10:00:21.348Z,96384.47
2019-03-17T10:02:50.852Z,96396.38
2019-03-17T10:05:20.374Z,96463.87
2019-03-17T10:07:49.847Z,96414.98
2019-03-17T10:10:24.318Z,96406.30
2019-03-17T10:12:53.767Z,96424.34
2019-03-17T10:15:23.231Z,96429.68
2019-03-17T10:17:52.685Z,96436.41
2019-03-17T10:20:22.215Z,96449.36
2019-03-17T10:22:51.689Z,96470.44
2019-03-17T10:25:21.131Z,96464.07
2019-03-17T10:27:50.584Z,96458.98
2019-03-17T10:30:21.468Z,96458.69
2019-03-17T10:32:50.949Z,96446.85
2019-03-17T10:35:20.493Z,96453.31
2019-03-17T10:37:49.942Z,96450.80
2019-03-17T10:40:21.800Z,96448.23
2019-03-17T10:42:51.519Z,96448.90
2019-03-17T10:45:20.976Z,96452.78
2019-03-17T10:47:50.449Z,96449.44
2019-03-17T10:50:21.323Z,96443.06
2019-03-17T10:52:50.800Z,96440.49
2019-03-17T10:55:20.252Z,96429.91
2019-03-17T10:57:49.770Z,96447.05
2019-03-17T11:00:22.790Z,96446.87
2019-03-17T11:02:52.252Z,96460.39
2019-03-17T11:05:21.709Z,96465.09
2019-03-17T11:07:51.183Z,96467.45
2019-03-17T11:10:20.648Z,96457.56
2019-03-17T11:12:50.105Z,96458.31
2019-03-17T11:15:23.879Z,96465.91
2019-03-17T11:17:53.394Z,96472.50
2019-03-17T11:20:22.858Z,96469.92
2019-03-17T11:22:52.328Z,96452.00
2019-03-17T11:25:22.050Z,96453.77
2019-03-17T11:27:51.574Z,96456.72
2019-03-17T11:30:22.354Z,96459.09
2019-03-17T11:32:51.812Z,96458.53
2019-03-17T11:35:21.287Z,96453.69
2019-03-17T11:37:50.732Z,96453.96
2019-03-17T11:40:22.079Z,96467.78
2019-03-17T11:42:51.612Z,96460.58
2019-03-17T11:45:21.060Z,96448.28
2019-03-17T11:47:50.947Z,96447.20
2019-03-17T11:50:21.723Z,96448.72
2019-03-17T11:52:51.616Z,96463.44
2019-03-17T11:55:21.147Z,96453.36
2019-03-17T11:57:50.622Z,96468.74
2019-03-17T12:00:26.150Z,96494.23
2019-03-17T12:02:55.597Z,96516.28
2019-03-17T12:05:25.075Z,96523.19
2019-03-17T12:07:54.599Z,96528.33
2019-03-17T12:10:24.692Z,96533.59
2019-03-17T12:12:54.163Z,96533.03
2019-03-17T12:15:32.235Z,96535.32
2019-03-17T12:18:01.711Z,96542.42
2019-03-17T12:20:31.162Z,96540.27
2019-03-17T12:23:00.608Z,96548.35
2019-03-17T12:25:30.163Z,96549.73
2019-03-17T12:27:59.622Z,96551.17
2019-03-17T12:30:29.433Z,96557.84
2019-03-17T12:32:58.882Z,96550.05
2019-03-17T12:35:28.337Z,96536.19
2019-03-17T12:37:57.800Z,96536.73
2019-03-17T12:40:27.262Z,96525.11
2019-03-17T12:42:56.709Z,96530.44
2019-03-17T12:45:26.194Z,96534.24
2019-03-17T12:47:55.958Z,96539.89
2019-03-17T12:50:27.783Z,96550.78
2019-03-17T12:52:57.253Z,96546.13
2019-03-17T12:55:26.834Z,96549.45
2019-03-17T12:57:56.284Z,96556.20
2019-03-17T13:00:28.951Z,96552.27
2019-03-17T13:02:58.392Z,96573.77
2019-03-17T13:05:27.868Z,96580.02
2019-03-17T13:07:57.322Z,96577.02
2019-03-17T13:10:26.765Z,96588.34
2019-03-17T13:12:56.233Z,96579.84
2019-03-17T13:15:25.692Z,96574.84
2019-03-17T13:17:55.161Z,96560.17
2019-03-17T13:20:24.624Z,96550.63
2019-03-17T13:22:54.081Z,96548.77
2019-03-17T13:25:23.540Z,96555.59
2019-03-17T13:27:53.017Z,96573.32
2019-03-17T13:30:22.473Z,96563.52
2019-03-17T13:32:51.935Z,96561.09
2019-03-17T13:35:21.408Z,96560.31
2019-03-17T13:37:50.951Z,96556.19
2019-03-17T13:40:29.591Z,96560.04
2019-03-17T13:42:52.618Z,96558.39
2019-03-17T13:45:22.103Z,96563.50
2019-03-17T13:47:53.032Z,96559.12
2019-03-17T13:50:24.019Z,96555.32
2019-03-17T13:52:53.479Z,96559.11
2019-03-17T13:55:23.206Z,96542.73
2019-03-17T13:58:10.889Z,96561.89
2019-03-17T14:00:40.360Z,96556.11
2019-03-17T14:03:09.841Z,96550.19
2019-03-17T14:05:39.306Z,96534.18
2019-03-17T14:08:08.762Z,96559.96
2019-03-17T14:10:41.314Z,96567.89
2019-03-17T14:13:09.658Z,96555.61
2019-03-17T14:15:39.120Z,96553.64
2019-03-17T14:18:08.591Z,96570.12
2019-03-17T14:20:38.065Z,96567.98
2019-03-17T14:23:07.517Z,96571.98
2019-03-17T14:25:38.711Z,96598.04
2019-03-17T14:28:08.179Z,96619.91
2019-03-17T14:30:37.663Z,96636.94
2019-03-17T14:33:07.167Z,96648.50
2019-03-17T14:35:36.875Z,96656.92
2019-03-17T14:38:06.384Z,96674.11
2019-03-17T14:40:35.875Z,96669.86
2019-03-17T14:43:05.321Z,96690.41
2019-03-17T14:45:34.777Z,96699.23
2019-03-17T14:48:04.314Z,96698.91
2019-03-17T14:50:33.766Z,96680.92
2019-03-17T14:53:03.228Z,96666.59
2019-03-17T14:55:32.702Z,96671.57
2019-03-17T14:58:02.148Z,96660.75
2019-03-17T15:00:31.599Z,96662.64
2019-03-17T15:03:01.074Z,96655.02
2019-03-17T15:05:30.543Z,96670.47
2019-03-17T15:08:00.018Z,96659.51
2019-03-17T15:10:29.479Z,96655.34
2019-03-17T15:12:58.939Z,96656.41
2019-03-17T15:15:28.420Z,96650.70
2019-03-17T15:17:57.874Z,96663.02
2019-03-17T15:20:28.197Z,96662.98
2019-03-17T15:22:57.736Z,96672.09
2019-03-17T15:25:27.278Z,96675.52
2019-03-17T15:27:56.825Z,96674.70
2019-03-17T15:30:28.101Z,96681.88
2019-03-17T15:32:57.691Z,96688.58
2019-03-17T15:35:27.238Z,96681.92
2019-03-17T15:37:56.692Z,96681.25
2019-03-17T15:40:26.145Z,96691.20
2019-03-17T15:42:55.617Z,96696.75
2019-03-17T15:45:25.705Z,96715.09
2019-03-17T15:47:55.174Z,96708.72
2019-03-17T15:50:29.413Z,96718.20
2019-03-17T15:52:58.873Z,96717.25
2019-03-17T15:55:28.356Z,96729.70
2019-03-17T15:57:57.827Z,96729.33
2019-03-17T16:00:27.641Z,96728.17
2019-03-17T16:02:57.267Z,96717.27
2019-03-17T16:05:26.728Z,96721.88
2019-03-17T16:07:56.267Z,96722.58
2019-03-17T16:10:33.509Z,96715.41
2019-03-17T16:13:03.048Z,96703.82
2019-03-17T16:15:32.576Z,96716.67
2019-03-17T16:18:02.090Z,96717.08
2019-03-17T16:20:31.516Z,96713.07
2019-03-17T16:23:00.977Z,96740.76
2019-03-17T16:25:38.708Z,96730.45
2019-03-17T16:28:08.243Z,96744.15
2019-03-17T16:30:37.714Z,96751.89
2019-03-17T16:33:07.292Z,96764.47
2019-03-17T16:35:36.691Z,96749.00
2019-03-17T16:38:06.226Z,96757.91
2019-03-17T16:40:36.529Z,96766.14
2019-03-17T16:43:06.833Z,96767.70
2019-03-17T16:45:36.306Z,96767.17
2019-03-17T16:48:05.936Z,96769.36
2019-03-17T16:50:35.404Z,96774.09
2019-03-17T16:53:05.010Z,96771.39
2019-03-17T16:55:34.585Z,96786.66
2019-03-17T16:58:04.050Z,96787.53
2019-03-17T17:00:33.507Z,96786.56
2019-03-17T17:03:02.971Z,96796.55
2019-03-17T17:05:34.966Z,96806.94
2019-03-17T17:08:03.640Z,96807.22
2019-03-17T17:10:33.118Z,96817.92
2019-03-17T17:13:02.571Z,96818.68
2019-03-17T17:15:33.952Z,96821.30
2019-03-17T17:18:03.403Z,96824.07
2019-03-17T17:20:39.598Z,96831.31
2019-03-17T17:23:09.051Z,96826.36
2019-03-17T17:25:38.599Z,96837.11
2019-03-17T17:28:08.052Z,96837.69
2019-03-17T17:30:37.526Z,96846.65
2019-03-17T17:33:07.043Z,96859.70
2019-03-17T17:35:36.495Z,96868.00
2019-03-17T17:38:06.047Z,96877.09
2019-03-17T17:40:35.498Z,96882.16
2019-03-17T17:43:04.956Z,96882.16
2019-03-17T17:45:34.432Z,96889.45
2019-03-17T17:48:03.901Z,96895.51
2019-03-17T17:50:34.255Z,96896.22
2019-03-17T17:53:03.711Z,96902.00
2019-03-17T17:55:33.179Z,96909.02
2019-03-17T17:58:02.659Z,96909.67
2019-03-17T18:00:39.452Z,96926.91
2019-03-17T18:03:08.920Z,96934.80
2019-03-17T18:05:38.365Z,96939.13
2019-03-17T18:08:07.820Z,96937.63
2019-03-17T18:10:37.287Z,96944.00
2019-03-17T18:13:06.745Z,96947.72
2019-03-17T18:15:36.468Z,96943.28
2019-03-17T18:18:06.017Z,96937.95
2019-03-17T18:20:35.472Z,96946.34
2019-03-17T18:23:16.918Z,96957.12
2019-03-17T18:25:36.116Z,96966.42
2019-03-17T18:28:05.877Z,96964.27
2019-03-17T18:30:35.327Z,96968.88
2019-03-17T18:33:04.867Z,96969.66
2019-03-17T18:35:34.314Z,96974.27
2019-03-17T18:38:03.777Z,96986.73
2019-03-17T18:40:33.241Z,97000.41
2019-03-17T18:43:02.700Z,97010.55
2019-03-17T18:45:33.684Z,97011.67
2019-03-17T18:48:03.134Z,97010.45
2019-03-17T18:50:32.578Z,97008.39
2019-03-17T18:53:02.077Z,97011.74
2019-03-17T18:55:31.594Z,97017.94
2019-03-17T18:58:01.055Z,97020.58
2019-03-17T19:00:30.575Z,97035.41
2019-03-17T19:03:00.013Z,97036.55
2019-03-17T19:05:29.493Z,97032.66
2019-03-17T19:07:58.962Z,97034.06
2019-03-17T19:10:28.437Z,97034.13
2019-03-17T19:12:58.453Z,97042.81
2019-03-17T19:15:27.901Z,97043.33
2019-03-17T19:17:57.381Z,97049.82
2019-03-17T19:20:26.837Z,97058.11
2019-03-17T19:22:56.287Z,97055.85
2019-03-17T19:25:26.666Z,97065.13
2019-03-17T19:27:56.185Z,97063.31
2019-03-17T19:30:25.703Z,97071.02
2019-03-17T19:32:55.492Z,97070.09
2019-03-17T19:35:25.020Z,97070.89
2019-03-17T19:37:54.509Z,97074.25
2019-03-17T19:40:25.356Z,97073.84
2019-03-17T19:42:59.316Z,97079.92
2019-03-17T19:45:25.993Z,97089.58
2019-03-17T19:47:55.462Z,97086.70
2019-03-17T19:50:24.920Z,97079.16
2019-03-17T19:52:54.439Z,97082.36
2019-03-17T19:55:23.934Z,97076.05
2019-03-17T19:57:53.527Z,97077.64
2019-03-17T20:00:23.546Z,97076.72
2019-03-17T20:02:53.022Z,97078.03
2019-03-17T20:05:22.468Z,97084.34
2019-03-17T20:07:51.942Z,97082.72
2019-03-17T20:10:26.740Z,97085.22
2019-03-17T20:12:56.287Z,97102.06
2019-03-17T20:15:25.739Z,97114.27
2019-03-17T20:17:55.444Z,97121.22
2019-03-17T20:20:24.927Z,97120.22
2019-03-17T20:22:54.396Z,97124.94
2019-03-17T20:25:23.859Z,97130.48
2019-03-17T20:27:53.318Z,97135.70
2019-03-17T20:30:22.782Z,97137.78
2019-03-17T20:32:52.239Z,97141.47
2019-03-17T20:35:21.688Z,97147.61
2019-03-17T20:37:51.159Z,97155.73
2019-03-17T20:40:20.845Z,97169.79
2019-03-17T20:42:50.318Z,97160.66
2019-03-17T20:45:20.597Z,97176.59
2019-03-17T20:47:50.195Z,97176.61
2019-03-17T20:50:22.423Z,97174.42
2019-03-17T20:52:51.877Z,97172.20
2019-03-17T20:55:21.337Z,97176.38
2019-03-17T20:57:50.836Z,97175.98
2019-03-17T21:00:20.890Z,97185.91
2019-03-17T21:02:50.589Z,97187.64
2019-03-17T21:05:20.055Z,97184.73
2019-03-17T21:07:49.500Z,97193.12
2019-03-17T21:10:19.018Z,97201.80
2019-03-17T21:12:48.485Z,97201.22
2019-03-17T21:15:20.821Z,97201.05
2019-03-17T21:17:50.291Z,97213.46
2019-03-17T21:20:22.432Z,97217.52
2019-03-17T21:22:51.966Z,97215.30
2019-03-17T21:25:21.415Z,97213.25
2019-03-17T21:27:50.939Z,97214.97
2019-03-17T21:30:31.856Z,97219.54
2019-03-17T21:33:01.303Z,97224.42
2019-03-17T21:35:30.769Z,97226.49
2019-03-17T21:38:00.220Z,97227.06
2019-03-17T21:40:29.693Z,97246.58
2019-03-17T21:42:59.140Z,97240.41
2019-03-17T21:45:28.590Z,97245.22
2019-03-17T21:47:58.062Z,97249.97
2019-03-17T21:50:27.530Z,97255.56
2019-03-17T21:52:56.985Z,97257.41
2019-03-17T21:55:26.434Z,97260.13
2019-03-17T21:57:55.883Z,97259.19
2019-03-17T22:00:25.417Z,97272.67
2019-03-17T22:02:55.379Z,97280.73
2019-03-17T22:05:24.920Z,97275.77
2019-03-17T22:07:54.433Z,97277.17
2019-03-17T22:10:23.996Z,97279.62
2019-03-17T22:12:53.492Z,97281.30
2019-03-17T22:15:22.964Z,97294.14
2019-03-17T22:17:52.414Z,97290.77
2019-03-17T22:20:22.136Z,97287.48
2019-03-17T22:22:51.585Z,97293.05
2019-03-17T22:25:21.053Z,97286.25
2019-03-17T22:27:50.523Z,97297.03
2019-03-17T22:30:21.069Z,97300.87
2019-03-17T22:32:50.521Z,97303.02
2019-03-17T22:35:20.004Z,97309.68
2019-03-17T22:37:49.458Z,97302.55
2019-03-17T22:40:19.858Z,97299.95
2019-03-17T22:42:49.317Z,97296.09
2019-03-17T22:45:18.828Z,97298.27
2019-03-17T22:47:48.300Z,97305.50
2019-03-17T22:50:18.866Z,97302.63
2019-03-17T22:52:48.377Z,97312.91
2019-03-17T22:55:18.015Z,97310.77
2019-03-17T22:57:47.462Z,97306.53
2019-03-17T23:00:26.483Z,97309.03
2019-03-17T23:02:55.936Z,97311.50
2019-03-17T23:05:26.069Z,97306.86
2019-03-17T23:07:55.526Z,97309.42
2019-03-17T23:10:24.973Z,97303.95
2019-03-17T23:12:54.435Z,97309.09
2019-03-17T23:15:23.893Z,97312.07
2019-03-17T23:17:53.367Z,97312.03
2019-03-17T23:20:22.818Z,97308.26
2019-03-17T23:22:52.274Z,97312.50
2019-03-17T23:25:21.735Z,97306.57
2019-03-17T23:27:51.252Z,97302.37
2019-03-17T23:30:22.113Z,97302.73
2019-03-17T23:32:51.727Z,97305.78
2019-03-17T23:35:21.182Z,97305.31
2019-03-17T23:37:50.645Z,97303.62
2019-03-17T23:40:20.183Z,97307.88
2019-03-17T23:42:49.660Z,97314.27
2019-03-17T23:45:19.111Z,97310.84
2019-03-17T23:47:48.571Z,97304.55
2019-03-17T23:50:18.031Z,97312.50
2019-03-17T23:52:47.579Z,97312.90
2019-03-17T23:55:17.141Z,97300.70
2019-03-17T23:57:46.579Z,97310.42
